createdAt,value
2022-09-23T00:00:08.814Z,101555.31
2022-09-23T00:02:35.333Z,101551.78
2022-09-23T00:05:01.779Z,101561.38
2022-09-23T00:07:28.360Z,101556.13
2022-09-23T00:09:54.883Z,101544.78
2022-09-23T00:12:21.710Z,101544.78
2022-09-23T00:14:48.242Z,101549.16
2022-09-23T00:17:14.724Z,101549.16
2022-09-23T00:19:41.308Z,101556.16
2022-09-23T00:22:07.766Z,101548.31
2022-09-23T00:24:34.260Z,101554.44
2022-09-23T00:27:00.762Z,101551.88
2022-09-23T00:29:27.279Z,101537.94
2022-09-23T00:31:53.697Z,101543.19
2022-09-23T00:34:20.115Z,101552.00
2022-09-23T00:36:46.537Z,101545.16
2022-09-23T00:39:12.996Z,101553.94
2022-09-23T00:41:39.826Z,101553.09
2022-09-23T00:44:43.895Z,101549.69
2022-09-23T00:47:19.524Z,101555.88
2022-09-23T00:49:52.419Z,101539.50
2022-09-23T00:52:23.104Z,101539.50
2022-09-23T00:54:52.747Z,101529.22
2022-09-23T00:57:19.619Z,101541.28
2022-09-23T00:59:47.819Z,101540.50
2022-09-23T01:02:15.337Z,101537.88
2022-09-23T01:04:42.559Z,101535.34
2022-09-23T01:07:09.025Z,101532.75
2022-09-23T01:09:36.239Z,101534.50
2022-09-23T01:12:47.030Z,101531.09
2022-09-23T01:15:34.676Z,101532.88
2022-09-23T01:18:27.343Z,101540.75
2022-09-23T01:21:15.737Z,101515.63
2022-09-23T01:24:19.534Z,101521.66
2022-09-23T01:27:00.513Z,101524.31
2022-09-23T01:29:58.804Z,101528.69
2022-09-23T01:32:40.341Z,101526.09
2022-09-23T01:35:09.837Z,101521.75
2022-09-23T01:37:51.057Z,101514.06
2022-09-23T01:40:35.017Z,101523.56
2022-09-23T01:43:09.866Z,101533.22
2022-09-23T01:45:40.939Z,101504.56
2022-09-23T01:48:22.713Z,101521.00
2022-09-23T01:51:22.656Z,101517.53
2022-09-23T01:54:20.796Z,101513.25
2022-09-23T01:57:12.003Z,101511.47
2022-09-23T01:59:43.088Z,101492.44
2022-09-23T02:02:15.906Z,101507.16
2022-09-23T02:04:42.296Z,101510.63
2022-09-23T02:07:34.777Z,101489.91
2022-09-23T02:10:10.685Z,101508.06
2022-09-23T02:12:40.698Z,101513.28
2022-09-23T02:15:14.513Z,101487.31
2022-09-23T02:17:54.679Z,101503.75
2022-09-23T02:20:39.383Z,101500.25
2022-09-23T02:23:11.613Z,101500.25
2022-09-23T02:26:00.869Z,101495.91
2022-09-23T02:28:35.359Z,101473.34
2022-09-23T02:31:11.883Z,101469.00
2022-09-23T02:34:04.304Z,101487.19
2022-09-23T02:36:54.241Z,101468.09
2022-09-23T02:39:29.556Z,101460.25
2022-09-23T02:42:04.396Z,101480.19
2022-09-23T02:44:31.254Z,101485.47
2022-09-23T02:46:57.764Z,101474.13
2022-09-23T02:49:28.422Z,101478.56
2022-09-23T02:51:57.127Z,101469.00
2022-09-23T02:54:28.578Z,101483.88
2022-09-23T02:56:55.358Z,101474.31
2022-09-23T02:59:23.543Z,101472.59
2022-09-23T03:02:21.749Z,101474.38
2022-09-23T03:05:08.514Z,101477.00
2022-09-23T03:08:02.956Z,101479.63
2022-09-23T03:10:48.185Z,101481.41
2022-09-23T03:13:48.348Z,101458.94
2022-09-23T03:16:24.480Z,101479.69
2022-09-23T03:19:12.599Z,101482.34
2022-09-23T03:21:46.420Z,101489.34
2022-09-23T03:24:14.612Z,101481.50
2022-09-23T03:26:45.481Z,101472.88
2022-09-23T03:29:13.719Z,101473.66
2022-09-23T03:31:40.759Z,101478.09
2022-09-23T03:34:22.538Z,101472.00
2022-09-23T03:36:58.032Z,101466.78
2022-09-23T03:39:27.602Z,101465.84
2022-09-23T03:41:58.779Z,101472.88
2022-09-23T03:44:25.317Z,101474.59
2022-09-23T03:46:51.727Z,101472.81
2022-09-23T03:49:25.518Z,101459.00
2022-09-23T03:51:51.970Z,101471.06
2022-09-23T03:54:18.380Z,101471.06
2022-09-23T03:56:44.892Z,101467.59
2022-09-23T03:59:11.327Z,101468.50
2022-09-23T04:01:37.879Z,101477.16
2022-09-23T04:04:04.336Z,101473.69
2022-09-23T04:06:30.804Z,101464.97
2022-09-23T04:08:58.662Z,101464.13
2022-09-23T04:11:25.176Z,101457.97
2022-09-23T04:13:51.620Z,101467.56
2022-09-23T04:16:18.155Z,101461.44
2022-09-23T04:18:44.603Z,101469.28
2022-09-23T04:21:11.186Z,101464.06
2022-09-23T04:23:37.647Z,101457.09
2022-09-23T04:26:05.551Z,101452.72
2022-09-23T04:28:32.129Z,101455.34
2022-09-23T04:30:59.152Z,101458.81
2022-09-23T04:33:25.705Z,101461.41
2022-09-23T04:35:52.187Z,101471.81
2022-09-23T04:38:19.497Z,101465.72
2022-09-23T04:40:46.040Z,101470.91
2022-09-23T04:43:13.643Z,101464.81
2022-09-23T04:45:40.141Z,101467.47
2022-09-23T04:48:06.612Z,101466.59
2022-09-23T04:50:33.473Z,101457.03
2022-09-23T04:52:59.927Z,101467.47
2022-09-23T04:55:26.380Z,101462.31
2022-09-23T04:57:52.797Z,101464.00
2022-09-23T05:00:19.416Z,101462.25
2022-09-23T05:02:47.962Z,101462.25
2022-09-23T05:05:15.759Z,101465.72
2022-09-23T05:07:42.206Z,101462.22
2022-09-23T05:10:08.755Z,101454.34
2022-09-23T05:12:35.187Z,101465.66
2022-09-23T05:15:01.621Z,101469.13
2022-09-23T05:17:28.427Z,101468.28
2022-09-23T05:19:54.884Z,101463.03
2022-09-23T05:22:21.286Z,101472.63
2022-09-23T05:24:47.764Z,101468.34
2022-09-23T05:27:14.181Z,101467.41
2022-09-23T05:29:40.646Z,101474.38
2022-09-23T05:32:07.100Z,101468.28
2022-09-23T05:34:33.561Z,101469.13
2022-09-23T05:37:00.133Z,101474.34
2022-09-23T05:39:26.565Z,101466.50
2022-09-23T05:41:53.005Z,101481.25
2022-09-23T05:44:19.471Z,101483.00
2022-09-23T05:46:45.954Z,101480.38
2022-09-23T05:49:12.440Z,101486.44
2022-09-23T05:51:39.083Z,101479.50
2022-09-23T05:54:05.717Z,101489.91
2022-09-23T05:56:33.666Z,101487.28
2022-09-23T05:59:01.555Z,101479.41
2022-09-23T06:01:31.749Z,101461.19
2022-09-23T06:03:59.180Z,101474.13
2022-09-23T06:06:31.610Z,101474.22
2022-09-23T06:08:58.950Z,101480.22
2022-09-23T06:11:25.870Z,101474.19
2022-09-23T06:13:56.921Z,101481.09
2022-09-23T06:16:23.484Z,101477.63
2022-09-23T06:18:49.945Z,101482.81
2022-09-23T06:21:17.701Z,101489.81
2022-09-23T06:23:44.859Z,101490.69
2022-09-23T06:26:16.115Z,101463.91
2022-09-23T06:28:44.365Z,101486.31
2022-09-23T06:31:14.101Z,101488.94
2022-09-23T06:33:45.455Z,101489.78
2022-09-23T06:36:17.665Z,101502.81
2022-09-23T06:38:46.311Z,101492.34
2022-09-23T06:41:12.763Z,101512.38
2022-09-23T06:43:39.482Z,101511.50
2022-09-23T06:46:07.142Z,101517.59
2022-09-23T06:48:34.448Z,101514.06
2022-09-23T06:51:03.187Z,101521.03
2022-09-23T06:53:29.922Z,101522.78
2022-09-23T06:56:05.906Z,101511.53
2022-09-23T06:58:34.218Z,101531.47
2022-09-23T07:01:06.202Z,101524.53
2022-09-23T07:03:33.634Z,101521.03
2022-09-23T07:06:00.528Z,101526.19
2022-09-23T07:08:28.548Z,101521.84
2022-09-23T07:10:57.390Z,101505.41
2022-09-23T07:13:24.319Z,101526.19
2022-09-23T07:15:55.561Z,101527.06
2022-09-23T07:18:22.671Z,101532.28
2022-09-23T07:20:50.640Z,101528.78
2022-09-23T07:23:17.241Z,101522.75
2022-09-23T07:25:44.873Z,101530.56
2022-09-23T07:28:11.340Z,101537.53
2022-09-23T07:30:43.907Z,101535.84
2022-09-23T07:33:29.736Z,101538.47
2022-09-23T07:35:57.838Z,101533.25
2022-09-23T07:38:24.291Z,101543.72
2022-09-23T07:40:50.836Z,101553.31
2022-09-23T07:43:17.239Z,101549.81
2022-09-23T07:45:43.715Z,101549.88
2022-09-23T07:48:10.383Z,101549.00
2022-09-23T07:50:39.200Z,101557.69
2022-09-23T07:53:05.642Z,101553.31
2022-09-23T07:55:32.075Z,101554.25
2022-09-23T07:57:58.533Z,101556.81
2022-09-23T08:00:25.003Z,101558.53
2022-09-23T08:02:53.126Z,101555.91
2022-09-23T08:05:19.905Z,101557.69
2022-09-23T08:07:46.318Z,101555.03
2022-09-23T08:10:12.760Z,101555.06
2022-09-23T08:12:39.263Z,101559.41
2022-09-23T08:15:06.267Z,101559.41
2022-09-23T08:17:32.715Z,101561.16
2022-09-23T08:19:59.164Z,101566.41
2022-09-23T08:22:25.715Z,101556.88
2022-09-23T08:24:54.053Z,101568.13
2022-09-23T08:27:22.188Z,101579.38
2022-09-23T08:29:48.614Z,101579.38
2022-09-23T08:32:15.133Z,101579.31
2022-09-23T08:34:41.577Z,101578.50
2022-09-23T08:37:11.345Z,101586.28
2022-09-23T08:39:37.795Z,101571.44
2022-09-23T08:42:32.096Z,101585.31
2022-09-23T08:45:04.599Z,101580.09
2022-09-23T08:47:43.122Z,101587.78
2022-09-23T08:50:24.161Z,101573.13
2022-09-23T08:53:02.912Z,101573.03
2022-09-23T08:55:41.464Z,101597.34
2022-09-23T08:58:25.020Z,101601.66
2022-09-23T09:01:16.555Z,101606.91
2022-09-23T09:03:50.744Z,101575.63
2022-09-23T09:06:45.636Z,101595.50
2022-09-23T09:09:21.348Z,101602.44
2022-09-23T09:11:52.349Z,101580.75
2022-09-23T09:14:26.574Z,101593.66
2022-09-23T09:17:01.507Z,101600.59
2022-09-23T09:19:49.934Z,101576.28
2022-09-23T09:22:22.658Z,101587.44
2022-09-23T09:24:49.685Z,101588.28
2022-09-23T09:27:16.339Z,101596.94
2022-09-23T09:29:46.420Z,101600.34
2022-09-23T09:32:18.681Z,101595.03
2022-09-23T09:35:01.016Z,101580.34
2022-09-23T09:37:39.180Z,101595.84
2022-09-23T09:40:08.079Z,101598.41
2022-09-23T09:42:40.356Z,101597.53
2022-09-23T09:45:19.729Z,101586.28
2022-09-23T09:48:00.208Z,101599.19
2022-09-23T09:50:41.911Z,101594.81
2022-09-23T09:53:24.842Z,101597.34
2022-09-23T09:56:10.942Z,101602.56
2022-09-23T09:58:55.402Z,101579.00
2022-09-23T10:01:29.191Z,101591.00
2022-09-23T10:03:59.486Z,101585.63
2022-09-23T10:06:29.840Z,101569.03
2022-09-23T10:09:08.509Z,101590.53
2022-09-23T10:11:35.461Z,101590.38
2022-09-23T10:14:17.729Z,101595.41
2022-09-23T10:16:46.175Z,101582.09
2022-09-23T10:19:26.954Z,101586.28
2022-09-23T10:21:59.544Z,101585.28
2022-09-23T10:24:32.231Z,101587.81
2022-09-23T10:27:10.385Z,101570.50
2022-09-23T10:29:39.349Z,101585.81
2022-09-23T10:32:26.084Z,101565.81
2022-09-23T10:35:17.492Z,101585.63
2022-09-23T10:37:51.409Z,101587.38
2022-09-23T10:40:30.096Z,101586.47
2022-09-23T10:43:20.017Z,101563.16
2022-09-23T10:45:49.474Z,101568.41
2022-09-23T10:48:30.858Z,101585.69
2022-09-23T10:50:59.460Z,101571.75
2022-09-23T10:53:53.301Z,101580.38
2022-09-23T10:56:30.370Z,101576.00
2022-09-23T10:59:05.918Z,101584.66
2022-09-23T11:01:43.741Z,101577.59
2022-09-23T11:04:19.216Z,101582.78
2022-09-23T11:07:22.388Z,101579.25
2022-09-23T11:10:18.439Z,101574.78
2022-09-23T11:13:43.380Z,101573.00
2022-09-23T11:16:19.149Z,101576.31
2022-09-23T11:19:07.525Z,101583.19
2022-09-23T11:22:24.915Z,101570.78
2022-09-23T11:25:00.281Z,101567.94
2022-09-23T11:27:43.927Z,101568.66
2022-09-23T11:30:16.205Z,101563.19
2022-09-23T11:33:26.298Z,101573.50
2022-09-23T11:35:58.912Z,101570.59
2022-09-23T11:38:42.905Z,101562.59
2022-09-23T11:41:12.133Z,101561.50
2022-09-23T11:43:41.053Z,101547.63
2022-09-23T11:46:13.516Z,101559.41
2022-09-23T11:48:47.905Z,101543.72
2022-09-23T11:51:14.283Z,101561.88
2022-09-23T11:53:43.186Z,101556.63
2022-09-23T11:56:35.031Z,101539.88
2022-09-23T11:59:30.621Z,101549.00
2022-09-23T12:02:36.345Z,101550.41
2022-09-23T12:05:11.733Z,101548.53
2022-09-23T12:07:57.463Z,101553.66
2022-09-23T12:10:36.083Z,101534.31
2022-09-23T12:13:33.885Z,101539.47
2022-09-23T12:16:24.832Z,101541.00
2022-09-23T12:19:28.789Z,101538.38
2022-09-23T12:22:04.482Z,101528.56
2022-09-23T12:25:09.572Z,101535.38
2022-09-23T12:27:45.004Z,101533.38
2022-09-23T12:30:27.975Z,101531.38
2022-09-23T12:33:25.829Z,101512.09
2022-09-23T12:35:54.391Z,101511.84
2022-09-23T12:38:25.695Z,101532.25
2022-09-23T12:40:56.324Z,101519.66
2022-09-23T12:43:34.487Z,101522.91
2022-09-23T12:46:24.698Z,101519.38
2022-09-23T12:48:54.197Z,101514.69
2022-09-23T12:51:21.913Z,101514.72
2022-09-23T12:53:48.356Z,101510.28
2022-09-23T12:56:16.141Z,101511.13
2022-09-23T12:58:42.645Z,101505.78
2022-09-23T13:01:15.412Z,101504.03
2022-09-23T13:03:46.071Z,101490.25
2022-09-23T13:06:12.571Z,101503.16
2022-09-23T13:08:41.898Z,101487.69
2022-09-23T13:11:29.146Z,101491.16
2022-09-23T13:13:58.667Z,101482.50
2022-09-23T13:16:40.732Z,101507.84
2022-09-23T13:19:27.151Z,101509.50
2022-09-23T13:21:53.583Z,101515.63
2022-09-23T13:24:22.746Z,101520.88
2022-09-23T13:27:03.241Z,101482.41
2022-09-23T13:30:05.799Z,101501.00
2022-09-23T13:32:40.773Z,101495.28
2022-09-23T13:35:13.378Z,101501.03
2022-09-23T13:37:47.045Z,101505.94
2022-09-23T13:40:20.833Z,101499.75
2022-09-23T13:43:03.789Z,101501.38
2022-09-23T13:45:31.717Z,101483.03
2022-09-23T13:48:04.102Z,101487.47
2022-09-23T13:50:34.867Z,101496.09
2022-09-23T13:53:02.658Z,101496.31
2022-09-23T13:55:32.193Z,101486.78
2022-09-23T13:58:00.798Z,101488.56
2022-09-23T14:00:31.961Z,101490.34
2022-09-23T14:02:58.326Z,101490.28
2022-09-23T14:05:26.888Z,101487.63
2022-09-23T14:07:55.825Z,101483.03
2022-09-23T14:10:24.675Z,101478.56
2022-09-23T14:12:52.577Z,101471.75
2022-09-23T14:15:21.312Z,101453.44
2022-09-23T14:17:52.007Z,101474.31
2022-09-23T14:20:21.326Z,101464.66
2022-09-23T14:22:47.950Z,101471.44
2022-09-23T14:25:16.580Z,101455.97
2022-09-23T14:27:44.724Z,101473.28
2022-09-23T14:30:16.189Z,101467.31
2022-09-23T14:32:43.117Z,101457.69
2022-09-23T14:35:25.807Z,101462.03
2022-09-23T14:37:58.202Z,101462.03
2022-09-23T14:40:28.747Z,101454.84
2022-09-23T14:42:55.191Z,101454.59
2022-09-23T14:45:25.044Z,101451.25
2022-09-23T14:47:58.739Z,101453.56
2022-09-23T14:50:28.452Z,101457.13
2022-09-23T14:52:54.927Z,101459.81
2022-09-23T14:55:21.694Z,101451.09
2022-09-23T14:57:48.226Z,101452.06
2022-09-23T15:00:19.863Z,101455.63
2022-09-23T15:03:02.527Z,101452.19
2022-09-23T15:05:42.156Z,101453.16
2022-09-23T15:08:11.949Z,101457.53
2022-09-23T15:10:39.931Z,101438.41
2022-09-23T15:13:19.243Z,101456.53
2022-09-23T15:15:45.978Z,101459.97
2022-09-23T15:18:22.895Z,101444.56
2022-09-23T15:20:50.707Z,101440.25
2022-09-23T15:23:47.920Z,101440.44
2022-09-23T15:26:17.415Z,101435.16
2022-09-23T15:28:44.968Z,101451.66
2022-09-23T15:31:16.334Z,101461.53
2022-09-23T15:33:46.858Z,101454.66
2022-09-23T15:36:20.261Z,101457.56
2022-09-23T15:38:47.503Z,101468.22
2022-09-23T15:41:15.349Z,101452.09
2022-09-23T15:43:41.822Z,101466.81
2022-09-23T15:46:20.496Z,101448.84
2022-09-23T15:48:59.288Z,101443.78
2022-09-23T15:51:27.384Z,101456.75
2022-09-23T15:53:54.481Z,101457.78
2022-09-23T15:56:21.864Z,101467.53
2022-09-23T15:58:48.885Z,101463.34
2022-09-23T16:01:27.013Z,101445.41
2022-09-23T16:03:54.017Z,101470.66
2022-09-23T16:06:20.436Z,101469.88
2022-09-23T16:08:46.969Z,101464.75
2022-09-23T16:11:18.515Z,101456.13
2022-09-23T16:13:45.380Z,101460.53
2022-09-23T16:16:11.901Z,101462.47
2022-09-23T16:18:38.437Z,101458.03
2022-09-23T16:21:05.751Z,101462.50
2022-09-23T16:23:37.058Z,101447.78
2022-09-23T16:26:05.274Z,101447.78
2022-09-23T16:28:31.701Z,101461.59
2022-09-23T16:30:58.170Z,101462.47
2022-09-23T16:33:24.831Z,101458.03
2022-09-23T16:35:51.326Z,101450.16
2022-09-23T16:38:17.736Z,101454.56
2022-09-23T16:40:47.185Z,101455.53
2022-09-23T16:43:13.876Z,101455.63
2022-09-23T16:45:40.381Z,101456.69
2022-09-23T16:48:06.858Z,101450.66
2022-09-23T16:50:34.316Z,101448.13
2022-09-23T16:53:00.779Z,101455.25
2022-09-23T16:55:27.534Z,101459.69
2022-09-23T16:57:54.653Z,101460.69
2022-09-23T17:00:22.168Z,101444.53
2022-09-23T17:02:48.608Z,101454.09
2022-09-23T17:05:15.068Z,101457.91
2022-09-23T17:07:41.546Z,101463.47
2022-09-23T17:10:08.512Z,101462.03
2022-09-23T17:12:34.963Z,101462.34
2022-09-23T17:15:04.960Z,101457.50
2022-09-23T17:17:34.221Z,101466.50
2022-09-23T17:20:00.864Z,101465.81
2022-09-23T17:22:29.800Z,101445.44
2022-09-23T17:24:56.215Z,101460.28
2022-09-23T17:27:22.644Z,101465.00
2022-09-23T17:29:49.063Z,101470.47
2022-09-23T17:32:15.582Z,101464.63
2022-09-23T17:34:42.286Z,101469.25
2022-09-23T17:37:09.633Z,101478.31
2022-09-23T17:39:36.130Z,101476.00
2022-09-23T17:42:02.613Z,101468.41
2022-09-23T17:44:29.399Z,101466.94
2022-09-23T17:46:55.866Z,101467.16
2022-09-23T17:49:22.289Z,101476.19
2022-09-23T17:51:48.750Z,101482.53
2022-09-23T17:54:15.326Z,101480.13
2022-09-23T17:56:42.196Z,101485.63
2022-09-23T17:59:12.102Z,101475.44
2022-09-23T18:01:39.100Z,101480.84
2022-09-23T18:04:05.808Z,101482.84
2022-09-23T18:06:35.500Z,101484.81
2022-09-23T18:09:04.242Z,101479.81
2022-09-23T18:11:34.015Z,101454.09
2022-09-23T18:14:03.676Z,101485.47
2022-09-23T18:16:34.469Z,101485.56
2022-09-23T18:19:02.667Z,101488.34
2022-09-23T18:21:37.403Z,101472.13
2022-09-23T18:24:30.849Z,101491.28
2022-09-23T18:26:50.717Z,101494.94
2022-09-23T18:29:17.424Z,101489.81
2022-09-23T18:31:44.002Z,101492.59
2022-09-23T18:34:12.377Z,101485.84
2022-09-23T18:36:38.908Z,101492.00
2022-09-23T18:39:05.400Z,101488.66
2022-09-23T18:41:31.884Z,101495.78
2022-09-23T18:43:58.376Z,101508.97
2022-09-23T18:46:29.347Z,101503.91
2022-09-23T18:48:56.126Z,101504.81
2022-09-23T18:51:23.515Z,101505.75
2022-09-23T18:53:49.974Z,101505.03
2022-09-23T18:56:18.528Z,101501.75
2022-09-23T18:58:49.212Z,101517.44
2022-09-23T19:01:16.755Z,101514.06
2022-09-23T19:03:43.715Z,101516.75
2022-09-23T19:06:12.889Z,101522.94
2022-09-23T19:08:39.970Z,101523.03
2022-09-23T19:11:08.507Z,101506.72
2022-09-23T19:13:35.754Z,101529.31
2022-09-23T19:16:03.830Z,101533.75
2022-09-23T19:18:31.269Z,101524.31
2022-09-23T19:20:58.005Z,101532.22
2022-09-23T19:23:24.483Z,101534.03
2022-09-23T19:25:50.950Z,101534.13
2022-09-23T19:28:17.423Z,101542.91
2022-09-23T19:30:43.840Z,101538.59
2022-09-23T19:33:10.319Z,101532.59
2022-09-23T19:35:45.901Z,101527.56
2022-09-23T19:38:12.450Z,101540.63
2022-09-23T19:40:38.914Z,101542.44
2022-09-23T19:43:05.429Z,101547.72
2022-09-23T19:45:31.866Z,101540.81
2022-09-23T19:47:58.311Z,101544.41
2022-09-23T19:50:24.796Z,101549.63
2022-09-23T19:52:51.306Z,101539.28
2022-09-23T19:55:19.055Z,101525.47
2022-09-23T19:57:45.986Z,101546.34
2022-09-23T20:00:14.256Z,101543.75
2022-09-23T20:02:41.899Z,101541.19
2022-09-23T20:05:11.897Z,101542.09
2022-09-23T20:07:40.314Z,101546.44
2022-09-23T20:10:08.515Z,101552.56
2022-09-23T20:12:35.088Z,101542.19
2022-09-23T20:15:01.559Z,101550.88
2022-09-23T20:17:27.997Z,101549.19
2022-09-23T20:19:54.451Z,101551.78
2022-09-23T20:22:20.894Z,101543.97
2022-09-23T20:24:47.432Z,101552.69
2022-09-23T20:27:13.858Z,101549.22
2022-09-23T20:29:40.338Z,101546.66
2022-09-23T20:32:06.779Z,101542.31
2022-09-23T20:34:34.105Z,101549.28
2022-09-23T20:37:00.605Z,101552.81
2022-09-23T20:39:27.354Z,101554.59
2022-09-23T20:41:53.797Z,101549.38
2022-09-23T20:44:20.296Z,101555.47
2022-09-23T20:46:48.758Z,101558.13
2022-09-23T20:49:16.573Z,101553.78
2022-09-23T20:51:49.671Z,101547.72
2022-09-23T20:54:17.351Z,101544.28
2022-09-23T20:56:43.799Z,101542.53
2022-09-23T20:59:10.403Z,101535.59
2022-09-23T21:01:36.947Z,101535.59
2022-09-23T21:04:04.457Z,101531.28
2022-09-23T21:06:31.094Z,101535.63
2022-09-23T21:08:57.550Z,101529.56
2022-09-23T21:11:23.976Z,101534.81
2022-09-23T21:13:51.663Z,101537.41
2022-09-23T21:16:20.060Z,101527.06
2022-09-23T21:18:46.719Z,101541.81
2022-09-23T21:21:13.172Z,101541.78
2022-09-23T21:23:40.565Z,101539.19
2022-09-23T21:26:09.449Z,101537.47
2022-09-23T21:28:37.957Z,101533.16
2022-09-23T21:31:07.263Z,101521.03
2022-09-23T21:33:34.245Z,101540.97
2022-09-23T21:36:00.774Z,101542.75
2022-09-23T21:38:27.180Z,101555.75
2022-09-23T21:41:01.186Z,101550.56
2022-09-23T21:43:30.841Z,101547.06
2022-09-23T21:45:58.916Z,101561.84
2022-09-23T21:48:36.615Z,101562.69
2022-09-23T21:51:08.540Z,101558.34
2022-09-23T21:53:35.950Z,101558.38
2022-09-23T21:56:09.357Z,101568.78
2022-09-23T21:58:37.699Z,101554.91
2022-09-23T22:01:31.270Z,101547.09
2022-09-23T22:04:00.322Z,101541.00
2022-09-23T22:06:28.228Z,101552.28
2022-09-23T22:08:58.117Z,101538.41
2022-09-23T22:11:26.600Z,101554.03
2022-09-23T22:13:53.042Z,101550.56
2022-09-23T22:16:19.545Z,101550.56
2022-09-23T22:18:46.060Z,101556.63
2022-09-23T22:21:12.504Z,101565.31
2022-09-23T22:23:38.907Z,101561.81
2022-09-23T22:26:05.403Z,101564.44
2022-09-23T22:28:32.781Z,101567.03
2022-09-23T22:30:59.386Z,101558.38
2022-09-23T22:33:25.829Z,101564.44
2022-09-23T22:35:52.265Z,101562.72
2022-09-23T22:38:18.691Z,101556.63
2022-09-23T22:40:45.194Z,101566.16
2022-09-23T22:43:11.668Z,101553.16
2022-09-23T22:45:38.144Z,101573.13
2022-09-23T22:48:04.865Z,101571.38
2022-09-23T22:50:31.321Z,101568.75
2022-09-23T22:52:57.774Z,101570.50
2022-09-23T22:55:24.213Z,101557.50
2022-09-23T22:57:50.669Z,101567.91
2022-09-23T23:00:17.110Z,101570.53
2022-09-23T23:02:43.533Z,101574.84
2022-09-23T23:05:10.049Z,101569.63
2022-09-23T23:07:36.517Z,101568.75
2022-09-23T23:10:03.070Z,101565.28
2022-09-23T23:12:29.487Z,101562.72
2022-09-23T23:14:55.952Z,101562.72
2022-09-23T23:17:22.393Z,101563.56
2022-09-23T23:19:48.815Z,101566.19
2022-09-23T23:22:15.327Z,101568.78
2022-09-23T23:24:41.819Z,101564.44
2022-09-23T23:27:08.252Z,101571.38
2022-09-23T23:29:34.720Z,101576.56
2022-09-23T23:32:01.291Z,101572.25
2022-09-23T23:34:27.810Z,101586.13
2022-09-23T23:36:54.269Z,101576.59
2022-09-23T23:39:22.189Z,101580.03
2022-09-23T23:41:51.653Z,101580.91
2022-09-23T23:44:18.142Z,101587.88
2022-09-23T23:46:44.610Z,101587.88
2022-09-23T23:49:11.104Z,101581.78
2022-09-23T23:51:37.589Z,101582.66
2022-09-23T23:54:04.240Z,101585.25
2022-09-23T23:56:30.860Z,101589.56
2022-09-23T23:59:01.727Z,101572.25
